Time;durP1;ratioP1;P1;durP2;ratioP2;P2;SDS_P1;SDS_P2;PMS_P1;PMS_P2;Temp;Humidity;BMP_temperature;BMP_pressure;BME280_temperature;BME280_humidity;BME280_pressure;Samples;Min_cycle;Max_cycle;Signal;HPM_P1;HPM_P2
2021/08/21 00:01:16;;;;;;;8.82;5.93;;;17.10;86.70;;;;;;5072792;28;20073;-68
2021/08/21 00:03:43;;;;;;;7.03;6.32;;;17.10;86.80;;;;;;5071099;28;20036;-68
2021/08/21 00:06:09;;;;;;;7.38;6.18;;;17.10;86.80;;;;;;5069418;28;20046;-68
2021/08/21 00:08:34;;;;;;;8.15;5.68;;;17.10;86.90;;;;;;5070411;28;20040;-68
2021/08/21 00:11:00;;;;;;;9.65;5.78;;;17.00;86.80;;;;;;5070715;28;20511;-68
2021/08/21 00:13:26;;;;;;;6.85;5.35;;;17.00;87.00;;;;;;5070425;28;20040;-68
2021/08/21 00:15:52;;;;;;;6.40;4.78;;;16.90;87.20;;;;;;5055244;28;20052;-68
2021/08/21 00:18:18;;;;;;;7.95;5.22;;;16.90;87.20;;;;;;5070537;28;20025;-68
2021/08/21 00:20:44;;;;;;;6.78;4.93;;;17.00;87.30;;;;;;5070557;28;20025;-68
2021/08/21 00:23:09;;;;;;;7.22;4.40;;;16.90;87.10;;;;;;5071752;28;20056;-68
2021/08/21 00:25:35;;;;;;;6.30;3.95;;;16.90;87.10;;;;;;5069715;28;20388;-68
2021/08/21 00:28:01;;;;;;;5.90;4.53;;;16.90;87.20;;;;;;5070535;28;20377;-68
2021/08/21 00:30:26;;;;;;;5.30;4.32;;;16.90;87.40;;;;;;5070316;28;20078;-68
2021/08/21 00:32:52;;;;;;;5.95;4.97;;;16.90;87.50;;;;;;5070358;28;20032;-68
2021/08/21 00:35:17;;;;;;;6.50;4.63;;;16.90;87.70;;;;;;5069606;28;20042;-68
2021/08/21 00:37:43;;;;;;;5.93;4.40;;;16.90;87.70;;;;;;5069775;28;20158;-68
2021/08/21 00:40:09;;;;;;;8.50;5.40;;;16.90;87.60;;;;;;5071563;28;20025;-68
2021/08/21 00:42:36;;;;;;;5.80;4.63;;;16.90;87.60;;;;;;5069667;28;20032;-68
2021/08/21 00:45:06;;;;;;;6.28;4.80;;;16.90;87.60;;;;;;5066273;28;20096;-69
2021/08/21 00:47:32;;;;;;;10.63;4.65;;;16.90;88.30;;;;;;5080971;28;20631;-68
2021/08/21 00:49:58;;;;;;;7.00;4.55;;;16.80;87.70;;;;;;5075739;28;20028;-68
2021/08/21 00:52:27;;;;;;;8.18;5.28;;;16.80;87.90;;;;;;5070158;28;20025;-68
2021/08/21 00:54:54;;;;;;;6.88;4.15;;;16.80;88.00;;;;;;5069489;28;20051;-68
2021/08/21 00:57:20;;;;;;;5.45;4.50;;;16.80;88.00;;;;;;5070775;28;20024;-68
2021/08/21 00:59:47;;;;;;;6.68;4.25;;;16.80;88.10;;;;;;5069826;28;20021;-68
2021/08/21 01:02:14;;;;;;;6.10;4.70;;;16.80;88.20;;;;;;5069979;28;20055;-68
2021/08/21 01:04:46;;;;;;;6.35;4.50;;;16.80;88.20;;;;;;5069200;28;20081;-68
2021/08/21 01:07:17;;;;;;;6.90;4.87;;;16.80;88.30;;;;;;5069145;28;20067;-68
2021/08/21 01:09:44;;;;;;;7.47;4.13;;;16.80;88.30;;;;;;5063472;28;20021;-68
2021/08/21 01:12:12;;;;;;;7.85;4.72;;;16.80;88.30;;;;;;5071616;28;20662;-68
2021/08/21 01:14:37;;;;;;;4.45;3.75;;;16.70;88.30;;;;;;5069148;28;20431;-69
2021/08/21 01:17:04;;;;;;;8.07;4.60;;;16.70;88.40;;;;;;5081604;28;20032;-68
2021/08/21 01:19:36;;;;;;;10.85;4.93;;;16.70;88.50;;;;;;5069949;28;20032;-68
2021/08/21 01:22:03;;;;;;;5.85;4.03;;;16.70;88.50;;;;;;5070013;28;20025;-68
2021/08/21 01:24:29;;;;;;;7.80;4.63;;;16.60;88.50;;;;;;5069445;28;20064;-68
2021/08/21 01:26:56;;;;;;;5.38;4.38;;;16.60;88.80;;;;;;5075509;28;20052;-68
2021/08/21 01:29:22;;;;;;;5.38;4.20;;;16.60;89.00;;;;;;5069691;28;20033;-68
2021/08/21 01:31:48;;;;;;;8.50;4.60;;;16.60;88.90;;;;;;5072270;28;20028;-68
2021/08/21 01:34:14;;;;;;;5.18;4.10;;;16.60;88.80;;;;;;5069489;28;20020;-68
2021/08/21 01:36:45;;;;;;;5.45;3.78;;;16.60;88.90;;;;;;5072167;28;20075;-68
2021/08/21 01:39:12;;;;;;;6.10;4.38;;;16.60;89.10;;;;;;5069339;28;20020;-68
2021/08/21 01:41:40;;;;;;;4.80;4.07;;;16.60;88.90;;;;;;5069626;28;20029;-68
2021/08/21 01:44:16;;;;;;;7.90;4.63;;;16.60;89.10;;;;;;5070958;28;20029;-68
2021/08/21 01:46:46;;;;;;;5.30;4.30;;;16.60;89.10;;;;;;5072754;28;20071;-68
2021/08/21 01:49:12;;;;;;;5.40;4.10;;;16.60;88.80;;;;;;5060477;28;20380;-68
2021/08/21 01:51:43;;;;;;;4.50;3.83;;;16.50;88.90;;;;;;5065538;28;20036;-68
2021/08/21 01:54:14;;;;;;;5.60;4.43;;;16.50;89.20;;;;;;5055907;28;20151;-68
2021/08/21 01:56:54;;;;;;;4.47;4.07;;;16.40;89.10;;;;;;5071349;28;20020;-68
2021/08/21 01:59:24;;;;;;;7.55;4.28;;;16.40;89.20;;;;;;5051716;28;20052;-68
2021/08/21 02:01:51;;;;;;;6.30;4.03;;;16.30;89.10;;;;;;5078112;28;20070;-68
2021/08/21 02:04:18;;;;;;;5.68;3.67;;;16.30;89.10;;;;;;5073969;28;20496;-68
2021/08/21 02:06:43;;;;;;;8.85;3.60;;;16.30;89.10;;;;;;5069853;28;20035;-68
2021/08/21 02:09:13;;;;;;;4.22;3.83;;;16.20;89.10;;;;;;5072756;28;20025;-68
2021/08/21 02:11:39;;;;;;;7.13;4.15;;;16.20;89.20;;;;;;5069971;28;20051;-68
2021/08/21 02:14:05;;;;;;;6.90;4.32;;;16.10;89.20;;;;;;5080633;28;20028;-68
2021/08/21 02:16:31;;;;;;;9.38;4.55;;;16.10;89.40;;;;;;5072370;28;20500;-68
2021/08/21 02:18:58;;;;;;;4.20;3.60;;;16.10;89.50;;;;;;5063940;28;20028;-68
2021/08/21 02:21:24;;;;;;;7.30;4.40;;;16.00;89.50;;;;;;5072616;28;20459;-68
2021/08/21 02:23:51;;;;;;;4.95;3.80;;;16.00;89.60;;;;;;5072408;28;20030;-68
2021/08/21 02:26:17;;;;;;;7.85;3.60;;;16.00;89.70;;;;;;5070982;28;20484;-68
2021/08/21 02:28:43;;;;;;;5.18;4.20;;;16.00;89.70;;;;;;5072444;28;20040;-68
2021/08/21 02:31:08;;;;;;;7.05;3.85;;;16.00;89.80;;;;;;5073795;28;20024;-68
2021/08/21 02:33:35;;;;;;;4.18;3.42;;;15.90;89.80;;;;;;5072707;28;20420;-68
2021/08/21 02:36:00;;;;;;;4.68;3.22;;;15.90;89.90;;;;;;5053645;28;20430;-68
2021/08/21 02:38:26;;;;;;;4.55;3.58;;;15.90;90.00;;;;;;5070855;28;20036;-68
2021/08/21 02:40:52;;;;;;;5.97;3.72;;;15.80;90.00;;;;;;5058111;28;20025;-68
2021/08/21 02:43:17;;;;;;;5.57;3.80;;;15.80;90.00;;;;;;5072418;28;20081;-68
2021/08/21 02:45:43;;;;;;;5.82;3.78;;;15.80;90.00;;;;;;5075201;28;20051;-68
2021/08/21 02:48:09;;;;;;;5.93;3.85;;;15.80;90.00;;;;;;5071982;28;20511;-68
2021/08/21 02:50:34;;;;;;;6.00;3.65;;;15.80;90.00;;;;;;5072351;28;20020;-68
2021/08/21 02:53:00;;;;;;;4.78;3.20;;;15.80;90.00;;;;;;5070506;28;20032;-68
2021/08/21 02:55:26;;;;;;;5.57;3.85;;;15.80;90.00;;;;;;5074440;28;20024;-68
2021/08/21 02:57:51;;;;;;;6.05;3.92;;;15.80;90.00;;;;;;5073551;28;20384;-68
2021/08/21 03:00:18;;;;;;;4.13;3.72;;;15.70;90.00;;;;;;5072218;28;20021;-67
2021/08/21 03:02:43;;;;;;;8.13;4.05;;;15.60;90.10;;;;;;5071888;28;20108;-68
2021/08/21 03:05:10;;;;;;;6.57;4.05;;;15.60;90.30;;;;;;5070581;28;20103;-68
2021/08/21 03:07:35;;;;;;;7.72;4.15;;;15.60;90.20;;;;;;5078164;28;20153;-68
2021/08/21 03:10:03;;;;;;;7.00;3.97;;;15.50;90.30;;;;;;5071904;28;20120;-68
2021/08/21 03:12:29;;;;;;;6.28;4.22;;;15.50;90.30;;;;;;5071231;28;20036;-68
2021/08/21 03:14:55;;;;;;;5.97;4.10;;;15.40;90.30;;;;;;5070943;28;20020;-67
2021/08/21 03:17:21;;;;;;;7.63;3.58;;;15.40;90.40;;;;;;5072175;28;20043;-68
2021/08/21 03:19:46;;;;;;;6.68;3.78;;;15.40;90.40;;;;;;5070598;28;20016;-69
2021/08/21 03:22:12;;;;;;;5.88;3.20;;;15.30;90.50;;;;;;5088411;28;20047;-69
2021/08/21 03:24:37;;;;;;;4.95;3.65;;;15.30;90.60;;;;;;5080444;28;20374;-68
2021/08/21 03:27:04;;;;;;;4.55;3.92;;;15.20;90.60;;;;;;5071690;28;20020;-68
2021/08/21 03:29:29;;;;;;;5.47;3.50;;;15.20;90.70;;;;;;5071880;28;20104;-68
2021/08/21 03:31:55;;;;;;;4.35;3.70;;;15.20;90.70;;;;;;5071309;28;20024;-69
2021/08/21 03:34:24;;;;;;;4.78;3.63;;;15.20;90.70;;;;;;5070964;28;20047;-68
2021/08/21 03:36:51;;;;;;;4.43;3.58;;;15.20;90.70;;;;;;5072232;28;20043;-67
2021/08/21 03:39:16;;;;;;;4.50;3.95;;;15.20;90.70;;;;;;5070989;28;20024;-68
2021/08/21 03:41:42;;;;;;;4.00;3.60;;;15.20;90.70;;;;;;5071493;28;20020;-68
2021/08/21 03:46:36;;;;;;;7.30;3.65;;;15.20;90.80;;;;;;5047911;28;20056;-67
2021/08/21 03:49:02;;;;;;;4.15;3.50;;;15.10;90.80;;;;;;5049563;28;20025;-67
2021/08/21 03:51:27;;;;;;;7.40;3.33;;;15.00;90.80;;;;;;5045846;28;20017;-66
2021/08/21 03:53:53;;;;;;;4.93;3.78;;;15.00;90.80;;;;;;5033099;28;20053;-67
2021/08/21 03:56:18;;;;;;;5.47;3.67;;;15.00;90.80;;;;;;5049413;28;20090;-67
2021/08/21 03:58:44;;;;;;;6.05;4.10;;;14.90;90.80;;;;;;5031376;28;20400;-67
2021/08/21 04:01:09;;;;;;;4.85;3.72;;;14.90;90.90;;;;;;5050969;28;20029;-67
2021/08/21 04:03:35;;;;;;;4.22;3.80;;;14.90;90.90;;;;;;5050974;28;20033;-68
2021/08/21 04:06:01;;;;;;;4.72;3.28;;;15.00;90.90;;;;;;5049388;28;20039;-67
2021/08/21 04:08:27;;;;;;;4.22;3.67;;;15.00;90.80;;;;;;5050396;28;20608;-68
2021/08/21 04:10:52;;;;;;;7.35;3.85;;;14.90;90.80;;;;;;5050679;28;20033;-67
2021/08/21 04:13:18;;;;;;;3.70;3.30;;;14.90;90.80;;;;;;5031533;28;20124;-67
2021/08/21 04:15:44;;;;;;;7.57;3.20;;;14.80;90.90;;;;;;5049278;28;20385;-65
2021/08/21 04:18:10;;;;;;;7.65;3.40;;;14.80;90.90;;;;;;5049994;28;20424;-67
2021/08/21 04:20:36;;;;;;;5.35;3.33;;;14.90;90.90;;;;;;5049499;28;20021;-64
2021/08/21 04:23:01;;;;;;;3.42;2.75;;;14.90;91.00;;;;;;5032084;28;20062;-67
2021/08/21 04:25:27;;;;;;;4.85;3.20;;;14.90;91.00;;;;;;5030812;28;20036;-66
2021/08/21 04:27:53;;;;;;;4.47;3.03;;;14.90;91.00;;;;;;5050565;28;20402;-67
2021/08/21 04:30:19;;;;;;;5.07;3.05;;;14.90;90.90;;;;;;5048485;28;20021;-67
2021/08/21 04:32:45;;;;;;;4.90;2.95;;;14.90;90.80;;;;;;5050486;28;20373;-67
2021/08/21 04:35:10;;;;;;;4.28;2.97;;;14.90;90.80;;;;;;5048909;28;20112;-66
2021/08/21 04:37:36;;;;;;;4.68;3.03;;;14.90;90.90;;;;;;5047377;28;20036;-63
2021/08/21 04:40:04;;;;;;;6.10;3.35;;;14.90;91.00;;;;;;5050223;28;20047;-63
2021/08/21 04:42:30;;;;;;;4.78;3.10;;;14.90;91.00;;;;;;5031671;28;20098;-68
2021/08/21 04:44:59;;;;;;;3.50;3.20;;;14.90;90.90;;;;;;5048421;28;20041;-67
2021/08/21 04:47:27;;;;;;;4.75;3.75;;;14.90;90.90;;;;;;5045630;28;20017;-66
2021/08/21 04:49:53;;;;;;;4.88;3.22;;;14.90;90.90;;;;;;5050242;28;20497;-64
2021/08/21 04:52:18;;;;;;;4.90;3.25;;;14.90;91.00;;;;;;5032631;28;20029;-68
2021/08/21 04:54:44;;;;;;;5.65;3.47;;;14.90;91.00;;;;;;5030342;28;20036;-68
2021/08/21 04:57:09;;;;;;;6.35;3.17;;;14.90;91.10;;;;;;5050150;28;20102;-67
2021/08/21 04:59:35;;;;;;;3.65;3.05;;;14.90;91.10;;;;;;5031794;28;20024;-65
2021/08/21 05:02:00;;;;;;;5.00;3.67;;;15.00;91.10;;;;;;5031393;28;20116;-67
2021/08/21 05:04:26;;;;;;;4.18;3.20;;;15.00;91.10;;;;;;5047961;28;20032;-67
2021/08/21 05:06:52;;;;;;;5.57;3.08;;;15.00;91.10;;;;;;5048070;28;20021;-66
2021/08/21 05:09:17;;;;;;;4.50;3.45;;;15.10;91.10;;;;;;5032523;28;20496;-66
2021/08/21 05:11:43;;;;;;;6.45;4.43;;;15.00;91.10;;;;;;5049130;28;20121;-67
2021/08/21 05:14:08;;;;;;;9.85;4.05;;;15.00;91.20;;;;;;5049816;28;20662;-66
2021/08/21 05:16:35;;;;;;;7.25;3.78;;;15.00;91.20;;;;;;5047702;28;20393;-67
2021/08/21 05:19:12;;;;;;;6.47;4.47;;;15.10;91.30;;;;;;5032024;28;20046;-64
2021/08/21 05:21:47;;;;;;;8.18;4.25;;;15.10;91.30;;;;;;5047033;28;20051;-66
2021/08/21 05:24:13;;;;;;;5.72;4.72;;;15.10;91.40;;;;;;5049185;28;20021;-67
2021/08/21 05:26:39;;;;;;;6.40;5.30;;;15.10;91.40;;;;;;5046238;28;20021;-63
2021/08/21 05:29:05;;;;;;;6.25;4.97;;;15.10;91.40;;;;;;5049368;28;20114;-67
2021/08/21 05:31:31;;;;;;;7.30;4.82;;;15.20;91.50;;;;;;5049305;28;20453;-67
2021/08/21 05:33:57;;;;;;;6.47;4.95;;;15.20;91.50;;;;;;5049952;28;20120;-67
2021/08/21 05:36:22;;;;;;;5.53;4.90;;;15.20;91.50;;;;;;5051120;28;20110;-68
2021/08/21 05:38:49;;;;;;;7.43;5.50;;;15.20;91.60;;;;;;5051260;28;20147;-67
2021/08/21 05:41:14;;;;;;;6.35;5.25;;;15.20;91.60;;;;;;5052706;28;20033;-67
2021/08/21 05:43:40;;;;;;;9.00;4.80;;;15.20;91.60;;;;;;5051777;28;20400;-64
2021/08/21 05:46:06;;;;;;;7.43;5.35;;;15.30;91.70;;;;;;5052158;28;20033;-63
2021/08/21 05:48:31;;;;;;;7.75;5.13;;;15.30;91.80;;;;;;5052317;28;20032;-68
2021/08/21 05:50:57;;;;;;;7.53;4.75;;;15.40;91.80;;;;;;5053104;28;20438;-67
2021/08/21 05:53:22;;;;;;;6.43;4.63;;;15.40;91.80;;;;;;5053150;28;20491;-67
2021/08/21 05:55:48;;;;;;;6.97;4.85;;;15.50;91.80;;;;;;5050005;28;20029;-64
2021/08/21 05:58:14;;;;;;;5.05;3.90;;;15.60;91.80;;;;;;5053332;28;20040;-68
2021/08/21 06:00:39;;;;;;;5.20;4.07;;;15.70;91.80;;;;;;5052076;28;20041;-68
2021/08/21 06:03:05;;;;;;;4.57;4.00;;;15.70;91.80;;;;;;5053434;28;20025;-67
2021/08/21 06:05:30;;;;;;;4.70;3.45;;;15.80;91.70;;;;;;5051811;28;20025;-64
2021/08/21 06:07:57;;;;;;;7.05;3.38;;;15.80;91.60;;;;;;5052564;28;20428;-67
2021/08/21 06:10:23;;;;;;;4.88;3.67;;;15.80;91.60;;;;;;5052918;28;20047;-67
2021/08/21 06:12:49;;;;;;;3.67;3.38;;;15.80;91.60;;;;;;5033790;28;20097;-66
2021/08/21 06:15:14;;;;;;;6.38;3.75;;;15.80;91.70;;;;;;5050787;28;20067;-68
2021/08/21 06:17:40;;;;;;;5.47;3.67;;;15.80;91.70;;;;;;5034062;28;20049;-67
2021/08/21 06:20:06;;;;;;;6.82;3.88;;;15.80;91.70;;;;;;5034586;28;20102;-67
2021/08/21 06:22:32;;;;;;;4.53;3.72;;;15.80;91.70;;;;;;5053071;28;20033;-67
2021/08/21 06:24:57;;;;;;;7.03;3.95;;;15.80;91.70;;;;;;5033423;28;20040;-67
2021/08/21 06:27:23;;;;;;;4.93;3.85;;;15.90;91.70;;;;;;5037912;28;20057;-64
2021/08/21 06:29:48;;;;;;;4.95;3.63;;;15.90;91.70;;;;;;5030455;28;20024;-66
2021/08/21 06:32:14;;;;;;;5.72;3.55;;;16.00;91.70;;;;;;5033901;28;20056;-67
2021/08/21 06:34:39;;;;;;;5.82;3.88;;;15.90;91.70;;;;;;5051470;28;20155;-67
2021/08/21 06:37:05;;;;;;;3.70;3.40;;;16.00;91.70;;;;;;5051868;28;20040;-65
2021/08/21 06:39:33;;;;;;;4.55;4.00;;;16.10;91.70;;;;;;5051208;28;20025;-64
2021/08/21 06:41:59;;;;;;;7.72;3.83;;;16.10;91.80;;;;;;5046676;28;20093;-67
2021/08/21 06:44:25;;;;;;;3.95;3.53;;;16.20;91.80;;;;;;5048490;28;20532;-67
2021/08/21 06:46:50;;;;;;;7.82;3.70;;;16.30;91.80;;;;;;5050647;28;20159;-67
2021/08/21 06:49:16;;;;;;;5.07;3.70;;;16.30;91.80;;;;;;5050982;28;20059;-66
2021/08/21 06:51:42;;;;;;;5.25;4.05;;;16.40;91.80;;;;;;5053421;28;20111;-65
2021/08/21 06:54:07;;;;;;;4.10;3.25;;;16.50;91.80;;;;;;5044503;28;20057;-67
2021/08/21 06:56:33;;;;;;;4.75;3.28;;;16.60;91.80;;;;;;5033759;28;20405;-67
2021/08/21 06:58:58;;;;;;;5.75;3.83;;;16.70;91.80;;;;;;5049479;28;20021;-67
2021/08/21 07:01:24;;;;;;;6.65;3.47;;;16.80;91.80;;;;;;5051053;28;20027;-65
2021/08/21 07:03:49;;;;;;;6.00;3.55;;;17.00;91.80;;;;;;5050387;28;20104;-67
2021/08/21 07:06:15;;;;;;;3.90;3.47;;;17.10;91.70;;;;;;5045042;28;20030;-67
2021/08/21 07:08:41;;;;;;;4.60;3.55;;;17.20;91.70;;;;;;5030485;28;20025;-66
2021/08/21 07:11:06;;;;;;;5.80;4.82;;;17.30;91.60;;;;;;5051235;28;20489;-66
2021/08/21 07:13:32;;;;;;;3.95;3.55;;;17.40;91.50;;;;;;5048734;28;20099;-68
2021/08/21 07:15:57;;;;;;;4.78;3.47;;;17.60;91.40;;;;;;5049906;28;20465;-67
2021/08/21 07:18:23;;;;;;;5.38;3.85;;;17.70;91.30;;;;;;5032925;28;20032;-67
2021/08/21 07:20:48;;;;;;;4.03;3.20;;;17.80;91.20;;;;;;5051505;28;20462;-63
2021/08/21 07:23:14;;;;;;;3.95;3.15;;;17.90;91.10;;;;;;5051225;28;20028;-67
2021/08/21 07:25:40;;;;;;;4.18;3.58;;;18.10;90.90;;;;;;5049601;28;20108;-67
2021/08/21 07:28:05;;;;;;;5.25;4.20;;;18.40;90.80;;;;;;5031648;28;20074;-67
2021/08/21 07:30:31;;;;;;;6.68;3.70;;;18.60;90.60;;;;;;5045754;28;20499;-67
2021/08/21 07:32:56;;;;;;;4.47;3.30;;;18.90;90.40;;;;;;5055952;28;20039;-67
2021/08/21 07:35:22;;;;;;;4.38;3.50;;;19.20;90.00;;;;;;5033840;28;20099;-68
2021/08/21 07:37:47;;;;;;;6.13;3.90;;;19.40;90.10;;;;;;5040893;28;20139;-67
2021/08/21 07:40:14;;;;;;;7.25;3.00;;;19.60;89.30;;;;;;5049723;28;20029;-66
2021/08/21 07:42:40;;;;;;;5.30;3.50;;;19.80;88.70;;;;;;5050241;28;20044;-67
2021/08/21 07:45:06;;;;;;;5.38;3.10;;;20.00;88.30;;;;;;5045693;28;20044;-67
2021/08/21 07:47:32;;;;;;;4.38;3.17;;;20.20;87.60;;;;;;5049703;28;20043;-67
2021/08/21 07:49:58;;;;;;;5.68;3.40;;;20.40;87.20;;;;;;5031479;28;20473;-68
2021/08/21 07:52:24;;;;;;;4.47;3.30;;;20.60;86.80;;;;;;5050789;28;20465;-66
2021/08/21 07:54:50;;;;;;;3.00;2.70;;;20.70;86.30;;;;;;5049238;28;20032;-64
2021/08/21 07:57:15;;;;;;;6.32;2.83;;;21.00;85.90;;;;;;5049273;28;20036;-65
2021/08/21 07:59:41;;;;;;;3.63;2.75;;;21.20;85.60;;;;;;5049197;28;20025;-67
2021/08/21 08:02:06;;;;;;;59.58;43.25;;;21.60;85.10;;;;;;5044526;28;20100;-67
2021/08/21 08:04:32;;;;;;;5.97;3.55;;;21.90;84.20;;;;;;5031826;28;20028;-68
2021/08/21 08:06:58;;;;;;;6.35;3.20;;;22.10;83.10;;;;;;5049006;28;20082;-67
2021/08/21 08:09:24;;;;;;;3.42;3.13;;;22.40;82.50;;;;;;5047315;28;20021;-64
2021/08/21 08:11:50;;;;;;;3.38;2.70;;;22.80;81.70;;;;;;5050014;28;20021;-68
2021/08/21 08:14:15;;;;;;;7.70;2.97;;;23.20;80.70;;;;;;5031178;28;20808;-68
2021/08/21 08:16:41;;;;;;;6.88;2.78;;;23.60;79.60;;;;;;5051090;28;20025;-67
2021/08/21 08:19:06;;;;;;;4.28;2.67;;;24.20;78.20;;;;;;5047045;28;20071;-67
2021/08/21 08:21:32;;;;;;;4.57;2.75;;;24.90;77.10;;;;;;5047127;28;20045;-65
2021/08/21 08:23:58;;;;;;;3.20;2.42;;;25.50;75.80;;;;;;5049638;28;20098;-68
2021/08/21 08:26:23;;;;;;;5.88;2.38;;;25.80;75.30;;;;;;5030430;28;20044;-68
2021/08/21 08:28:49;;;;;;;3.50;2.58;;;26.10;74.40;;;;;;5039808;28;20462;-68
2021/08/21 08:31:16;;;;;;;2.95;2.47;;;26.50;73.30;;;;;;5048591;28;20100;-68
2021/08/21 08:33:42;;;;;;;5.05;2.80;;;26.40;73.10;;;;;;5050167;28;20036;-68
2021/08/21 08:36:08;;;;;;;5.90;4.80;;;26.50;72.50;;;;;;5029926;28;20053;-68
2021/08/21 08:38:33;;;;;;;10.93;3.15;;;26.80;71.70;;;;;;5051760;28;20064;-67
2021/08/21 08:41:00;;;;;;;2.58;2.20;;;26.80;70.80;;;;;;5030892;28;20446;-69
2021/08/21 08:43:27;;;;;;;3.70;2.50;;;27.00;69.20;;;;;;5049397;28;20029;-69
2021/08/21 08:45:53;;;;;;;2.28;2.08;;;27.10;69.20;;;;;;5029341;28;20562;-70
2021/08/21 08:48:20;;;;;;;2.72;2.28;;;27.20;68.30;;;;;;5031338;28;20063;-66
2021/08/21 08:50:48;;;;;;;2.40;2.20;;;27.50;67.50;;;;;;5044737;28;20033;-69
2021/08/21 08:53:14;;;;;;;2.47;2.20;;;27.80;66.10;;;;;;5047579;28;20029;-67
2021/08/21 08:55:40;;;;;;;2.38;2.17;;;27.80;65.60;;;;;;5049102;28;20094;-69
2021/08/21 08:58:06;;;;;;;4.05;2.17;;;27.80;65.30;;;;;;5049545;28;20029;-69
2021/08/21 09:00:32;;;;;;;3.78;2.47;;;27.80;65.30;;;;;;5049460;28;20021;-69
2021/08/21 09:03:00;;;;;;;2.58;2.15;;;27.80;65.20;;;;;;5031970;28;20075;-69
2021/08/21 09:05:37;;;;;;;3.40;2.40;;;27.70;65.20;;;;;;5030402;28;20028;-68
2021/08/21 09:08:02;;;;;;;4.50;2.40;;;27.80;64.80;;;;;;5040924;28;20536;-69
2021/08/21 09:10:31;;;;;;;2.47;2.08;;;27.80;65.40;;;;;;5050473;28;20028;-68
2021/08/21 09:13:07;;;;;;;3.50;2.33;;;27.90;65.20;;;;;;5035399;28;20029;-67
2021/08/21 09:15:36;;;;;;;4.43;2.22;;;28.00;64.80;;;;;;5034442;28;20071;-69
2021/08/21 09:18:20;;;;;;;2.10;1.90;;;28.10;65.00;;;;;;5053172;28;20040;-66
2021/08/21 09:20:49;;;;;;;2.88;2.40;;;28.20;65.00;;;;;;5049517;28;20028;-67
2021/08/21 09:23:26;;;;;;;3.55;2.42;;;28.20;64.40;;;;;;5035936;28;20032;-71
2021/08/21 09:26:05;;;;;;;7.40;2.20;;;28.30;64.60;;;;;;5053168;28;20036;-69
2021/08/21 09:28:32;;;;;;;3.75;2.10;;;28.30;64.20;;;;;;5035750;28;20060;-70
2021/08/21 09:31:03;;;;;;;3.97;2.17;;;28.30;65.10;;;;;;5052788;28;20454;-71
2021/08/21 09:33:30;;;;;;;2.17;1.98;;;28.40;64.80;;;;;;5053496;28;20025;-70
2021/08/21 09:35:55;;;;;;;3.92;2.42;;;28.50;65.30;;;;;;5050735;28;20026;-71
2021/08/21 09:38:29;;;;;;;2.22;2.03;;;28.50;64.60;;;;;;5052716;28;20054;-71
2021/08/21 09:41:01;;;;;;;3.55;2.08;;;28.60;64.00;;;;;;5034757;28;20496;-70
2021/08/21 09:46:12;;;;;;;2.15;2.05;;;28.40;64.00;;;;;;5039908;28;20045;-70
2021/08/21 09:49:13;;;;;;;5.20;2.20;;;28.40;63.70;;;;;;5036501;28;20025;-69
2021/08/21 09:51:48;;;;;;;4.57;2.30;;;28.60;64.60;;;;;;4988424;28;20027;-70
2021/08/21 09:54:18;;;;;;;2.72;2.42;;;28.70;64.70;;;;;;5009345;28;20064;-69
2021/08/21 09:56:54;;;;;;;5.15;2.17;;;28.80;63.70;;;;;;5017839;28;20025;-69
2021/08/21 09:59:36;;;;;;;3.35;2.40;;;28.80;63.60;;;;;;5035829;28;20064;-68
2021/08/21 10:02:07;;;;;;;3.13;2.05;;;28.70;63.60;;;;;;5037300;28;20481;-67
2021/08/21 10:04:34;;;;;;;3.67;2.60;;;28.50;63.60;;;;;;5031381;28;20038;-67
2021/08/21 10:07:04;;;;;;;2.83;2.33;;;28.50;64.50;;;;;;5013400;28;20076;-68
2021/08/21 10:09:36;;;;;;;3.30;2.63;;;28.60;65.00;;;;;;5013816;28;20029;-67
2021/08/21 10:12:06;;;;;;;3.00;2.35;;;28.80;64.20;;;;;;5020423;28;20029;-67
2021/08/21 10:14:33;;;;;;;5.33;2.30;;;28.80;63.30;;;;;;5045385;28;20057;-67
2021/08/21 10:17:00;;;;;;;3.67;2.33;;;28.70;63.00;;;;;;5049160;28;20025;-67
2021/08/21 10:19:26;;;;;;;2.60;2.35;;;28.50;63.40;;;;;;5053618;28;20119;-67
2021/08/21 10:21:57;;;;;;;2.13;2.03;;;28.40;63.90;;;;;;5052794;28;20033;-67
2021/08/21 10:24:30;;;;;;;2.75;2.28;;;28.40;63.40;;;;;;5053388;28;20039;-67
2021/08/21 10:27:24;;;;;;;6.28;2.85;;;28.30;63.30;;;;;;5038549;28;20400;-67
2021/08/21 10:30:14;;;;;;;3.97;2.45;;;28.10;62.50;;;;;;5007727;28;20505;-67
2021/08/21 10:32:42;;;;;;;2.45;2.25;;;27.90;63.60;;;;;;4997095;28;20113;-67
2021/08/21 10:35:14;;;;;;;2.60;2.28;;;27.70;63.30;;;;;;5012739;28;20022;-67
2021/08/21 10:37:40;;;;;;;;;;;27.70;63.80;;;;;;5030924;28;20025;-67
2021/08/21 10:40:28;;;;;;;3.35;2.63;;;27.70;64.70;;;;;;5033471;28;19912;-67
2021/08/21 10:43:05;;;;;;;4.40;2.55;;;27.80;63.90;;;;;;5033301;28;20547;-67
2021/08/21 10:45:41;;;;;;;2.70;2.50;;;27.70;63.40;;;;;;5040355;28;20029;-67
2021/08/21 10:48:11;;;;;;;2.80;2.08;;;27.70;63.40;;;;;;5035543;28;20486;-67
2021/08/21 10:50:42;;;;;;;4.00;2.70;;;27.70;63.60;;;;;;5033081;28;20044;-67
2021/08/21 10:53:09;;;;;;;3.42;2.40;;;27.90;63.00;;;;;;5032896;28;20021;-67
2021/08/21 10:55:44;;;;;;;6.65;2.60;;;28.10;63.50;;;;;;5014391;28;20075;-67
2021/08/21 10:58:14;;;;;;;4.05;2.47;;;28.30;62.70;;;;;;5012866;28;20026;-67
2021/08/21 11:00:40;;;;;;;2.40;2.20;;;28.50;62.10;;;;;;5014125;28;20030;-67
2021/08/21 11:03:38;;;;;;;3.75;2.17;;;28.40;61.80;;;;;;5015440;28;20638;-67
2021/08/21 11:06:08;;;;;;;3.13;2.40;;;28.40;61.70;;;;;;5013954;28;20018;-67
2021/08/21 11:08:39;;;;;;;2.35;2.15;;;28.40;61.70;;;;;;5019626;28;20018;-67
2021/08/21 11:11:08;;;;;;;2.40;2.17;;;28.50;61.00;;;;;;5023884;28;20030;-67
2021/08/21 11:14:02;;;;;;;3.25;2.60;;;28.60;60.90;;;;;;5035396;28;20070;-67
2021/08/21 11:16:51;;;;;;;3.58;2.50;;;28.60;60.20;;;;;;5047779;28;20023;-67
2021/08/21 11:19:39;;;;;;;4.13;2.65;;;28.50;59.70;;;;;;5052281;28;20018;-67
2021/08/21 11:22:20;;;;;;;2.10;2.00;;;28.50;60.10;;;;;;5032628;28;20532;-67
2021/08/21 11:24:52;;;;;;;4.82;2.55;;;28.40;60.10;;;;;;5031525;28;20029;-67
2021/08/21 11:27:28;;;;;;;3.05;2.67;;;28.30;59.60;;;;;;5022528;28;20030;-67
2021/08/21 11:30:12;;;;;;;3.03;2.58;;;28.20;59.20;;;;;;5027986;28;20501;-67
2021/08/21 11:32:57;;;;;;;3.75;2.63;;;28.10;59.00;;;;;;5017649;28;20030;-67
2021/08/21 11:35:30;;;;;;;2.63;2.42;;;28.10;59.50;;;;;;5017040;28;20100;-67
2021/08/21 11:38:07;;;;;;;4.90;2.80;;;28.10;59.70;;;;;;5031078;28;20053;-67
2021/08/21 11:40:42;;;;;;;2.75;2.50;;;28.10;60.40;;;;;;5031897;28;20040;-67
2021/08/21 11:43:10;;;;;;;3.83;2.67;;;28.20;60.10;;;;;;5031936;28;20083;-67
2021/08/21 11:45:37;;;;;;;3.53;2.85;;;28.20;60.20;;;;;;5042694;28;20025;-67
2021/08/21 11:48:03;;;;;;;4.18;2.60;;;28.30;60.00;;;;;;5050280;28;20041;-67
2021/08/21 11:50:37;;;;;;;4.75;3.03;;;28.30;59.10;;;;;;5051704;28;20056;-67
2021/08/21 11:53:04;;;;;;;3.67;2.40;;;28.30;58.90;;;;;;5031775;28;20057;-67
2021/08/21 11:55:31;;;;;;;4.40;2.53;;;28.30;59.30;;;;;;5016330;28;20501;-67
2021/08/21 11:57:57;;;;;;;3.20;2.63;;;28.30;59.50;;;;;;5019968;28;20030;-67
2021/08/21 12:00:28;;;;;;;5.55;2.40;;;28.40;59.60;;;;;;5011834;28;20022;-67
2021/08/21 12:03:01;;;;;;;4.90;2.50;;;28.40;59.40;;;;;;5011934;28;20076;-67
2021/08/21 12:05:35;;;;;;;3.78;2.40;;;28.40;59.00;;;;;;5011247;28;20117;-67
2021/08/21 12:08:33;;;;;;;3.95;2.88;;;28.40;59.10;;;;;;5011607;28;20025;-67
2021/08/21 12:11:01;;;;;;;3.10;2.63;;;28.40;59.30;;;;;;5023814;28;20539;-67
2021/08/21 12:13:31;;;;;;;3.13;2.53;;;28.40;59.20;;;;;;5033055;28;20575;-67
2021/08/21 12:16:12;;;;;;;10.90;3.55;;;28.40;59.10;;;;;;5045079;28;20021;-67
2021/08/21 12:18:40;;;;;;;3.08;2.63;;;28.50;59.10;;;;;;5035020;28;20021;-67
2021/08/21 12:21:08;;;;;;;2.80;2.47;;;28.50;59.10;;;;;;5031318;28;20030;-67
2021/08/21 12:23:35;;;;;;;4.20;2.65;;;28.50;58.80;;;;;;5030461;28;20481;-67
2021/08/21 12:26:03;;;;;;;6.60;2.78;;;28.40;58.30;;;;;;5030276;28;20127;-67
2021/08/21 12:28:43;;;;;;;4.30;3.00;;;28.40;58.20;;;;;;5018099;28;20030;-67
2021/08/21 12:31:11;;;;;;;3.60;2.63;;;28.30;57.80;;;;;;5029621;28;20046;-67
2021/08/21 12:33:39;;;;;;;2.67;2.42;;;28.30;59.40;;;;;;5017401;28;20049;-67
2021/08/21 12:36:21;;;;;;;3.15;2.85;;;28.40;58.90;;;;;;5026522;28;20017;-67
2021/08/21 12:39:01;;;;;;;3.00;2.78;;;28.50;59.00;;;;;;5013958;28;20149;-67
2021/08/21 12:41:27;;;;;;;3.63;2.60;;;28.60;58.20;;;;;;5011192;28;20038;-67
2021/08/21 12:44:14;;;;;;;3.13;2.33;;;28.70;58.00;;;;;;5013470;28;20462;-68
2021/08/21 12:46:50;;;;;;;3.10;2.83;;;28.70;58.20;;;;;;5014536;28;20393;-67
2021/08/21 12:49:15;;;;;;;3.25;2.33;;;28.70;57.50;;;;;;5026602;28;20025;-67
2021/08/21 12:51:42;;;;;;;2.80;2.55;;;28.80;58.00;;;;;;5030666;28;20096;-67
2021/08/21 12:54:12;;;;;;;3.00;2.33;;;28.80;58.00;;;;;;5030859;28;20235;-67
2021/08/21 12:56:39;;;;;;;2.85;2.50;;;29.00;58.00;;;;;;5030107;28;20091;-67
2021/08/21 12:59:08;;;;;;;2.95;2.70;;;29.10;57.70;;;;;;5022521;28;20393;-67